Flight Information

DEPARTURE
PHOENIX, AZ
Elevation:
1134
Runways:
8/26 - 11489x150 - CONC-G
7L/25R - 10300x150 - CONC-G
7R/25L - 7800x150 - CONC-G
Active PE Departure:
7L - 8
Current PE ATIS:
Q
Altimeter:
29.86
Remarks:
SIMULTANEOUS APPROACHES TO PARALLEL RUNWAYS IN USE. V F R DEPARTURES CONTACT CLEARANCE DELIVERY, ADVISE ON COURSE HEADING, ALTITUDE, AND IF FLIGHT FOLLOWING IS REQUESTED.
ATIS:
127.575
Clearance Delivery:
118.1
Ground:
119.75 NORTH 132.55 SOUTH
Tower:
PHOENIX TOWER
120.9 RWY 7L-25R, 7R-25L
118.7 RWY 8-26
DESTINATION
,
Elevation:
TPA:
1000 (est.)


6493.3 NM77° True-13° Var64° HDG

Flight Plan:
(click to file on line)

1. Type
2. Aircraft Identification
3. Aircraft Type / Special Equipment
4. True Airspeed
kts
5. Departure Airport
(ICAO code)
6. Arriving Airport
(ICAO code)
7. Cruising Altitude
ft
8. Alternate Airport
(ICAO code)
9. Route of Flight
10. Remarks


00:00:00 Departure ATIS: Destination ATIS:

Clearance Limit:
Route:
Altitude: Expect in minutes
Frequency:
Transponder: (7500 Hijack / 7600 Lost Comms / 7700 Emergency)


KPHX 010251Z 21004KT 10SM CLR 34/02 A2986 RMK AO2 SLP093 T03390022 53005 $
Time: 2020-10-01T02:51:00Z
1601523262
Winds: 210 @ 4 kts
Visibility: 10.0 sm
Clouds (AGL): CLR
Temperature: 33.9 C
Dew Point: 2.2 C
Pressure: 29.861221 in Hgbr


Notes:

Data extracted from FAA Digital Chart Supplement. Effective: 0901Z Thursday, Sep 10, 2020 to 0901Z Thursday, Nov 5, 2020
Current ATIS data is provided courtisy of PilotEdge.